Time;durP1;ratioP1;P1;durP2;ratioP2;P2;SDS_P1;SDS_P2;PMS_P1;PMS_P2;Temp;Humidity;BMP_temperature;BMP_pressure;BME280_temperature;BME280_humidity;BME280_pressure;Samples;Min_cycle;Max_cycle;Signal;HPM_P1;HPM_P2
2022/02/21 00:02:18;;;;;;;;;;;;;;;9.38;77.88;97050.48;1738837;82;24739;-84
2022/02/21 00:04:47;;;;;;;;;;;;;;;9.39;77.74;97044.30;1733172;82;22044;-83
2022/02/21 00:07:13;;;;;;;;;;;;;;;9.40;77.55;97035.99;1725796;82;26081;-84
2022/02/21 00:09:39;;;;;;;;;;;;;;;9.40;77.24;97022.46;1734193;81;24425;-83
2022/02/21 00:12:05;;;;;;;;;;;;;;;9.42;76.95;97027.08;1732169;82;20204;-83
2022/02/21 00:14:31;;;;;;;;;;;;;;;9.43;76.79;97022.20;1722681;82;24740;-83
2022/02/21 00:16:58;;;;;;;;;;;;;;;9.41;76.60;97007.14;1733734;82;22075;-83
2022/02/21 00:19:24;;;;;;;;;;;;;;;9.42;76.41;97002.27;1733668;82;26124;-83
2022/02/21 00:21:50;;;;;;;;;;;;;;;9.42;76.19;96994.44;1734544;82;24494;-84
2022/02/21 00:24:16;;;;;;;;;;;;;;;9.44;75.92;96989.89;1714271;83;20225;-83
2022/02/21 00:26:43;;;;;;;;;;;;;;;9.46;75.64;96984.54;1733173;81;24806;-83
2022/02/21 00:29:11;;;;;;;;;;;;;;;9.48;75.43;96978.23;1715388;81;21924;-83
2022/02/21 00:31:37;;;;;;;;;;;;;;;9.47;75.23;96971.36;1715497;83;26141;-83
2022/02/21 00:34:03;;;;;;;;;;;;;;;9.49;75.04;96971.23;1739972;82;24482;-83
2022/02/21 00:36:29;;;;;;;;;;;;;;;9.48;74.76;96950.81;1734946;80;20243;-83
2022/02/21 00:38:55;;;;;;;;;;;;;;;9.52;74.43;96960.50;1737482;82;20424;-83
2022/02/21 00:41:21;;;;;;;;;;;;;;;9.55;74.14;96961.04;1732656;80;22146;-83
2022/02/21 00:43:47;;;;;;;;;;;;;;;9.56;73.92;96957.47;1737714;81;26704;-88
2022/02/21 00:46:14;;;;;;;;;;;;;;;9.56;73.71;96953.55;1735345;82;25311;-87
2022/02/21 00:48:40;;;;;;;;;;;;;;;9.57;73.52;96942.15;1737845;82;20305;-88
2022/02/21 00:51:09;;;;;;;;;;;;;;;9.58;73.33;96935.97;1737332;80;25440;-88
2022/02/21 00:53:35;;;;;;;;;;;;;;;9.59;73.09;96937.63;1731743;80;22029;-88
2022/02/21 00:56:05;;;;;;;;;;;;;;;9.60;72.96;96934.54;1732898;82;26021;-88
2022/02/21 00:58:32;;;;;;;;;;;;;;;9.60;72.84;96935.84;1738915;82;24482;-88
2022/02/21 01:00:58;;;;;;;;;;;;;;;9.62;72.66;96926.89;1731445;81;20223;-88
2022/02/21 01:03:24;;;;;;;;;;;;;;;9.63;72.47;96915.48;1742724;82;24792;-88
2022/02/21 01:05:50;;;;;;;;;;;;;;;9.63;72.29;96920.71;1739842;82;21933;-88
2022/02/21 01:08:16;;;;;;;;;;;;;;;9.64;72.14;96910.61;1733284;82;25953;-88
2022/02/21 01:10:42;;;;;;;;;;;;;;;9.65;72.04;96923.19;1736899;81;24426;-88
2022/02/21 01:13:08;;;;;;;;;;;;;;;9.66;71.89;96907.84;1732978;82;20204;-87
2022/02/21 01:15:34;;;;;;;;;;;;;;;9.66;71.72;96908.67;1733902;80;24552;-88
2022/02/21 01:18:00;;;;;;;;;;;;;;;9.68;71.55;96898.09;1742835;81;21934;-88
2022/02/21 01:20:26;;;;;;;;;;;;;;;9.69;71.36;96903.66;1737151;81;25975;-85
2022/02/21 01:22:53;;;;;;;;;;;;;;;9.71;71.18;96894.39;1736649;82;24625;-85
2022/02/21 01:25:19;;;;;;;;;;;;;;;9.72;71.00;96889.48;1739750;81;20300;-84
2022/02/21 01:27:46;;;;;;;;;;;;;;;9.72;70.91;96888.17;1742365;82;24753;-84
2022/02/21 01:30:18;;;;;;;;;;;;;;;9.70;70.72;96875.28;1736137;82;22053;-83
2022/02/21 01:32:44;;;;;;;;;;;;;;;9.72;70.56;96874.63;1733812;80;26082;-85
2022/02/21 01:35:11;;;;;;;;;;;;;;;9.73;70.43;96874.98;1742160;82;24540;-85
2022/02/21 01:37:37;;;;;;;;;;;;;;;9.74;70.32;96874.02;1717268;82;20161;-84
2022/02/21 01:40:07;;;;;;;;;;;;;;;9.75;70.20;96870.93;1726583;82;24773;-83
2022/02/21 01:42:32;;;;;;;;;;;;;;;9.76;70.06;96852.99;1729223;82;22000;-87
2022/02/21 01:45:04;;;;;;;;;;;;;;;9.75;69.95;96847.42;1731904;82;26300;-86
2022/02/21 01:47:31;;;;;;;;;;;;;;;9.77;69.79;96855.92;1732189;82;24213;-87
2022/02/21 01:49:57;;;;;;;;;;;;;;;9.78;69.67;96849.73;1730057;82;20448;-88
2022/02/21 01:52:23;;;;;;;;;;;;;;;9.77;69.59;96831.11;1732809;82;24988;-86
2022/02/21 01:54:55;;;;;;;;;;;;;;;9.76;69.50;96828.17;1723512;82;22126;-86
2022/02/21 01:57:18;;;;;;;;;;;;;;;9.76;69.33;96831.61;1720253;81;26092;-83
2022/02/21 01:59:50;;;;;;;;;;;;;;;9.77;69.19;96812.82;1749797;81;24553;-82
2022/02/21 02:02:16;;;;;;;;;;;;;;;9.76;69.05;96793.73;1729789;81;20295;-84
2022/02/21 02:04:42;;;;;;;;;;;;;;;9.77;68.89;96804.50;1725682;82;24779;-85
2022/02/21 02:07:11;;;;;;;;;;;;;;;9.78;68.78;96802.72;1727155;82;21924;-85
2022/02/21 02:09:39;;;;;;;;;;;;;;;9.78;68.73;96795.70;1718855;82;26029;-85
2022/02/21 02:12:09;;;;;;;;;;;;;;;9.78;68.63;96794.88;1726299;83;24538;-85
2022/02/21 02:14:36;;;;;;;;;;;;;;;9.77;68.48;96785.39;1731874;82;20603;-86
2022/02/21 02:17:13;;;;;;;;;;;;;;;9.78;68.43;96789.17;1724149;82;24909;-85
2022/02/21 02:19:40;;;;;;;;;;;;;;;9.78;68.37;96780.03;1685509;83;21862;-85
2022/02/21 02:22:16;;;;;;;;;;;;;;;9.79;68.26;96774.33;1749255;81;26218;-86
2022/02/21 02:24:44;;;;;;;;;;;;;;;9.78;68.23;96782.64;1717747;83;24690;-87
2022/02/21 02:27:29;;;;;;;;;;;;;;;9.75;68.25;96782.11;1712223;83;20201;-87
2022/02/21 02:29:54;;;;;;;;;;;;;;;9.71;68.35;96779.45;1691291;82;24775;-87
2022/02/21 02:32:21;;;;;;;;;;;;;;;9.63;68.48;96767.92;1728597;82;22062;-88
2022/02/21 02:34:48;;;;;;;;;;;;;;;9.59;68.68;96786.63;1737047;82;25962;-89
2022/02/21 02:37:19;;;;;;;;;;;;;;;9.57;68.88;96786.77;1719808;82;24591;-88
2022/02/21 02:39:45;;;;;;;;;;;;;;;9.48;69.23;96777.17;1731553;81;20272;-87
2022/02/21 02:42:17;;;;;;;;;;;;;;;9.41;69.59;96777.38;1732440;81;24756;-88
2022/02/21 02:44:43;;;;;;;;;;;;;;;9.37;69.95;96779.11;1733019;81;21938;-86
2022/02/21 02:47:11;;;;;;;;;;;;;;;9.32;70.26;96768.27;1730962;83;26020;-83
2022/02/21 02:49:38;;;;;;;;;;;;;;;9.31;70.58;96756.17;1731519;81;24514;-82
2022/02/21 02:52:04;;;;;;;;;;;;;;;9.27;70.94;96770.00;1730616;82;20564;-83
2022/02/21 02:54:31;;;;;;;;;;;;;;;9.25;71.29;96757.56;1715276;81;24798;-83
2022/02/21 02:56:57;;;;;;;;;;;;;;;9.20;71.72;96769.73;1754829;81;22030;-83
2022/02/21 02:59:26;;;;;;;;;;;;;;;9.14;72.16;96766.84;1749437;81;25940;-83
2022/02/21 03:01:52;;;;;;;;;;;;;;;9.07;72.70;96763.13;1748989;81;24605;-83
2022/02/21 03:04:19;;;;;;;;;;;;;;;9.00;73.36;96760.25;1724633;81;20549;-84
2022/02/21 03:06:45;;;;;;;;;;;;;;;8.89;74.08;96770.03;1711902;82;24904;-83
2022/02/21 03:09:11;;;;;;;;;;;;;;;8.80;74.73;96755.52;1732308;82;21802;-83
2022/02/21 03:11:37;;;;;;;;;;;;;;;8.71;75.48;96748.53;1730265;82;25948;-83
2022/02/21 03:14:04;;;;;;;;;;;;;;;8.67;76.20;96734.61;1724459;80;25229;-83
2022/02/21 03:16:30;;;;;;;;;;;;;;;8.56;77.04;96727.74;1731490;82;20479;-83
2022/02/21 03:18:56;;;;;;;;;;;;;;;8.46;77.87;96719.54;1733046;80;24720;-84
2022/02/21 03:21:22;;;;;;;;;;;;;;;8.36;78.71;96719.53;1731249;80;21985;-84
2022/02/21 03:23:48;;;;;;;;;;;;;;;8.30;79.39;96709.17;1729888;82;25980;-87
2022/02/21 03:26:14;;;;;;;;;;;;;;;8.24;80.09;96714.06;1729682;82;24443;-87
2022/02/21 03:28:45;;;;;;;;;;;;;;;8.18;80.75;96703.70;1721934;82;20249;-87
2022/02/21 03:31:12;;;;;;;;;;;;;;;8.15;81.39;96706.59;1731233;82;24771;-87
2022/02/21 03:33:38;;;;;;;;;;;;;;;8.13;81.96;96684.25;1727462;82;22047;-85
2022/02/21 03:36:10;;;;;;;;;;;;;;;8.12;82.48;96677.38;1729029;81;25949;-87
2022/02/21 03:38:39;;;;;;;;;;;;;;;8.11;82.98;96649.67;1721294;81;24488;-87
2022/02/21 03:41:08;;;;;;;;;;;;;;;8.11;83.45;96630.96;1726507;82;20803;-87
2022/02/21 03:43:34;;;;;;;;;;;;;;;8.11;83.85;96608.00;1718852;82;24859;-87
2022/02/21 03:46:00;;;;;;;;;;;;;;;8.11;84.23;96609.30;1722083;82;21918;-87
2022/02/21 03:48:32;;;;;;;;;;;;;;;8.14;84.60;96595.98;1720425;81;26999;-87
2022/02/21 03:50:58;;;;;;;;;;;;;;;8.16;84.89;96588.86;1692168;82;24351;-87
2022/02/21 03:53:24;;;;;;;;;;;;;;;8.17;85.17;96584.00;1729662;82;20224;-87
2022/02/21 03:55:50;;;;;;;;;;;;;;;8.19;85.43;96582.06;1729548;81;20960;-85
2022/02/21 03:58:16;;;;;;;;;;;;;;;8.22;85.66;96580.02;1723529;82;21988;-84
2022/02/21 04:00:42;;;;;;;;;;;;;;;8.23;85.86;96579.55;1727186;81;21079;-83
2022/02/21 04:03:08;;;;;;;;;;;;;;;8.22;86.07;96579.20;1726528;82;24385;-83
2022/02/21 04:05:36;;;;;;;;;;;;;;;8.15;86.22;96556.77;1722257;82;20246;-83
2022/02/21 04:08:02;;;;;;;;;;;;;;;8.11;86.40;96554.11;1727074;82;24795;-83
2022/02/21 04:10:28;;;;;;;;;;;;;;;8.08;86.58;96537.44;1721594;82;22079;-87
2022/02/21 04:12:54;;;;;;;;;;;;;;;8.08;86.76;96543.13;1729150;82;26791;-87
2022/02/21 04:15:22;;;;;;;;;;;;;;;8.10;86.95;96530.80;1719294;82;20650;-87
2022/02/21 04:17:49;;;;;;;;;;;;;;;8.14;87.15;96529.06;1726081;82;20163;-83
2022/02/21 04:20:17;;;;;;;;;;;;;;;8.14;87.30;96521.73;1720251;82;24721;-83
2022/02/21 04:22:44;;;;;;;;;;;;;;;8.15;87.46;96537.23;1721029;82;21982;-86
2022/02/21 04:25:11;;;;;;;;;;;;;;;8.17;87.60;96550.13;1728886;82;26062;-84
2022/02/21 04:27:44;;;;;;;;;;;;;;;8.19;87.77;96545.11;1722640;82;24587;-87
2022/02/21 04:30:13;;;;;;;;;;;;;;;8.22;87.91;96544.02;1720440;82;20235;-84
2022/02/21 04:32:40;;;;;;;;;;;;;;;8.17;88.01;96536.62;1718759;82;24832;-83
2022/02/21 04:35:07;;;;;;;;;;;;;;;8.17;88.12;96522.30;1719920;82;22132;-83
2022/02/21 04:37:43;;;;;;;;;;;;;;;8.13;88.19;96524.02;1720769;82;25992;-83
2022/02/21 04:40:11;;;;;;;;;;;;;;;8.12;88.27;96498.45;1702716;84;24441;-86
2022/02/21 04:42:37;;;;;;;;;;;;;;;8.17;88.36;96475.88;1691779;84;20223;-82
2022/02/21 04:45:04;;;;;;;;;;;;;;;8.28;88.45;96471.80;1694877;84;24761;-85
2022/02/21 04:47:30;;;;;;;;;;;;;;;8.35;88.52;96468.51;1695164;84;22050;-86
2022/02/21 04:49:56;;;;;;;;;;;;;;;8.48;88.51;96457.78;1709305;83;26190;-86
2022/02/21 04:52:23;;;;;;;;;;;;;;;8.62;88.49;96465.13;1685741;84;26016;-82
2022/02/21 04:54:49;;;;;;;;;;;;;;;8.72;88.38;96449.46;1712356;82;20229;-86
2022/02/21 04:57:15;;;;;;;;;;;;;;;8.83;88.27;96447.97;1714669;83;24910;-86
2022/02/21 04:59:41;;;;;;;;;;;;;;;8.96;88.04;96432.78;1715900;83;21946;-84
2022/02/21 05:02:09;;;;;;;;;;;;;;;9.14;87.67;96447.99;1711429;82;26741;-86
2022/02/21 05:04:35;;;;;;;;;;;;;;;9.27;87.24;96441.61;1711423;83;24506;-86
2022/02/21 05:07:01;;;;;;;;;;;;;;;9.40;86.62;96444.17;1699563;83;20585;-86
2022/02/21 05:09:28;;;;;;;;;;;;;;;9.54;86.07;96459.83;1701317;83;24750;-83
2022/02/21 05:11:54;;;;;;;;;;;;;;;9.61;85.54;96466.06;1703316;83;22098;-83
2022/02/21 05:14:20;;;;;;;;;;;;;;;9.67;84.87;96456.33;1696263;84;25949;-83
2022/02/21 05:16:46;;;;;;;;;;;;;;;9.71;84.27;96443.30;1678940;84;20248;-82
2022/02/21 05:19:12;;;;;;;;;;;;;;;9.74;83.65;96453.95;1698692;84;20307;-83
2022/02/21 05:21:38;;;;;;;;;;;;;;;9.77;82.97;96454.94;1700091;83;24732;-86
2022/02/21 05:24:04;;;;;;;;;;;;;;;9.79;82.39;96449.91;1712049;83;21926;-84
2022/02/21 05:26:32;;;;;;;;;;;;;;;9.78;81.88;96445.66;1698044;83;26288;-83
2022/02/21 05:28:58;;;;;;;;;;;;;;;9.79;81.33;96438.16;1686692;83;24509;-87
2022/02/21 05:31:29;;;;;;;;;;;;;;;9.76;80.87;96416.76;1685619;84;20290;-87
2022/02/21 05:33:52;;;;;;;;;;;;;;;9.76;80.39;96424.59;1717015;83;24957;-84
2022/02/21 05:36:20;;;;;;;;;;;;;;;9.71;80.04;96437.28;1719421;82;22075;-87
2022/02/21 05:38:46;;;;;;;;;;;;;;;9.69;79.77;96417.02;1727934;81;26006;-83
2022/02/21 05:41:13;;;;;;;;;;;;;;;9.61;79.57;96409.44;1746188;81;24445;-87
2022/02/21 05:43:39;;;;;;;;;;;;;;;9.57;79.42;96391.61;1744904;81;20301;-87
2022/02/21 05:46:05;;;;;;;;;;;;;;;9.52;79.26;96392.08;1740521;81;20317;-87
2022/02/21 05:48:32;;;;;;;;;;;;;;;9.45;79.18;96383.19;1737864;81;22070;-87
2022/02/21 05:50:58;;;;;;;;;;;;;;;9.39;79.15;96379.87;1744232;81;26034;-82
2022/02/21 05:53:24;;;;;;;;;;;;;;;9.36;79.15;96393.72;1745552;81;24497;-84
2022/02/21 05:55:50;;;;;;;;;;;;;;;9.31;79.17;96407.22;1744672;81;20207;-83
2022/02/21 05:58:16;;;;;;;;;;;;;;;9.26;79.20;96410.77;1743616;81;24729;-82
2022/02/21 06:00:45;;;;;;;;;;;;;;;9.21;79.26;96419.05;1747898;81;22019;-82
2022/02/21 06:03:10;;;;;;;;;;;;;;;9.18;79.35;96421.11;1744725;81;26242;-82
2022/02/21 06:05:36;;;;;;;;;;;;;;;9.12;79.49;96417.30;1745730;81;24414;-86
2022/02/21 06:08:02;;;;;;;;;;;;;;;9.06;79.68;96417.06;1744764;81;20525;-86
2022/02/21 06:10:28;;;;;;;;;;;;;;;9.00;79.88;96429.41;1743370;81;24816;-86
2022/02/21 06:12:54;;;;;;;;;;;;;;;8.92;80.13;96432.74;1746725;81;20894;-86
2022/02/21 06:15:20;;;;;;;;;;;;;;;8.87;80.38;96438.05;1746617;81;25944;-86
2022/02/21 06:17:46;;;;;;;;;;;;;;;8.80;80.63;96449.06;1746790;81;24526;-86
2022/02/21 06:20:12;;;;;;;;;;;;;;;8.77;80.90;96447.23;1748532;81;20206;-86
2022/02/21 06:22:39;;;;;;;;;;;;;;;8.74;81.20;96431.38;1740703;81;25506;-86
2022/02/21 06:25:08;;;;;;;;;;;;;;;8.70;81.54;96449.59;1745507;81;22035;-83
2022/02/21 06:27:34;;;;;;;;;;;;;;;8.64;81.85;96454.56;1744176;81;25981;-82
2022/02/21 06:30:00;;;;;;;;;;;;;;;8.59;82.19;96443.27;1747651;81;24380;-82
2022/02/21 06:32:29;;;;;;;;;;;;;;;8.53;82.54;96426.89;1743571;81;20215;-85
2022/02/21 06:34:55;;;;;;;;;;;;;;;8.52;82.89;96443.48;1739967;81;25938;-82
2022/02/21 06:37:22;;;;;;;;;;;;;;;8.48;83.25;96435.63;1742629;81;22030;-86
2022/02/21 06:39:48;;;;;;;;;;;;;;;8.46;83.57;96448.44;1745679;81;26017;-86
2022/02/21 06:42:14;;;;;;;;;;;;;;;8.45;83.86;96456.77;1749379;81;24373;-86
2022/02/21 06:44:40;;;;;;;;;;;;;;;8.43;84.22;96446.14;1756407;81;20385;-85
2022/02/21 06:47:06;;;;;;;;;;;;;;;8.43;84.51;96450.05;1756188;81;24723;-86
2022/02/21 06:49:32;;;;;;;;;;;;;;;8.41;84.77;96460.61;1755343;81;21969;-87
2022/02/21 06:51:58;;;;;;;;;;;;;;;8.39;85.03;96456.03;1748397;81;26688;-85
2022/02/21 06:54:26;;;;;;;;;;;;;;;8.40;85.32;96458.95;1744979;81;25062;-85
2022/02/21 06:56:52;;;;;;;;;;;;;;;8.38;85.58;96451.30;1752046;81;20242;-84
2022/02/21 06:59:18;;;;;;;;;;;;;;;8.39;85.83;96446.91;1746814;81;20191;-84
2022/02/21 07:01:44;;;;;;;;;;;;;;;8.39;86.06;96449.05;1752672;81;22110;-82
2022/02/21 07:04:10;;;;;;;;;;;;;;;8.39;86.22;96463.38;1745063;81;20809;-82
2022/02/21 07:06:38;;;;;;;;;;;;;;;8.42;86.46;96473.16;1754223;81;24401;-82
2022/02/21 07:09:04;;;;;;;;;;;;;;;8.38;86.64;96460.91;1745998;81;20298;-87
2022/02/21 07:11:30;;;;;;;;;;;;;;;8.38;86.82;96440.87;1745790;81;24722;-87
2022/02/21 07:13:56;;;;;;;;;;;;;;;8.40;87.03;96449.35;1756931;81;21941;-87
2022/02/21 07:16:22;;;;;;;;;;;;;;;8.42;87.22;96445.31;1751040;81;25958;-87
2022/02/21 07:18:51;;;;;;;;;;;;;;;8.44;87.46;96430.36;1752561;81;24481;-87
2022/02/21 07:21:17;;;;;;;;;;;;;;;8.44;87.71;96438.18;1751168;81;20276;-87
2022/02/21 07:23:43;;;;;;;;;;;;;;;8.44;87.97;96426.45;1748639;81;24742;-87
2022/02/21 07:26:11;;;;;;;;;;;;;;;8.45;88.25;96435.09;1753454;81;22822;-86
2022/02/21 07:28:38;;;;;;;;;;;;;;;8.46;88.57;96421.90;1753574;81;26035;-87
2022/02/21 07:31:06;;;;;;;;;;;;;;;8.47;88.87;96427.45;1751635;81;24617;-87
2022/02/21 07:33:34;;;;;;;;;;;;;;;8.49;89.19;96425.54;1751234;81;20302;-87
2022/02/21 07:36:00;;;;;;;;;;;;;;;8.50;89.56;96411.55;1747840;81;24775;-87
2022/02/21 07:38:26;;;;;;;;;;;;;;;8.51;89.90;96410.55;1745839;81;21912;-87
2022/02/21 07:40:52;;;;;;;;;;;;;;;8.55;90.17;96402.81;1746627;81;26035;-87
2022/02/21 07:43:21;;;;;;;;;;;;;;;8.57;90.48;96408.68;1749614;81;25106;-87
2022/02/21 07:45:47;;;;;;;;;;;;;;;8.60;90.75;96403.67;1745411;81;20463;-87
2022/02/21 07:48:13;;;;;;;;;;;;;;;8.63;91.00;96404.20;1751013;81;25230;-87
2022/02/21 07:50:41;;;;;;;;;;;;;;;8.69;91.21;96411.92;1751991;81;20167;-87
2022/02/21 07:53:08;;;;;;;;;;;;;;;8.71;91.39;96413.91;1747174;81;26101;-87
2022/02/21 07:55:40;;;;;;;;;;;;;;;8.75;91.48;96416.56;1752766;81;23972;-87
2022/02/21 07:58:06;;;;;;;;;;;;;;;8.79;91.55;96421.81;1754210;81;20580;-87
2022/02/21 08:00:33;;;;;;;;;;;;;;;8.81;91.68;96399.86;1743634;81;25374;-82
2022/02/21 08:03:00;;;;;;;;;;;;;;;8.83;91.67;96404.11;1753136;81;22036;-84
2022/02/21 08:05:26;;;;;;;;;;;;;;;8.88;91.69;96412.31;1751149;81;26025;-84
2022/02/21 08:07:52;;;;;;;;;;;;;;;8.89;91.72;96400.41;1742854;81;24475;-82
2022/02/21 08:10:18;;;;;;;;;;;;;;;8.91;91.74;96402.40;1748749;81;20843;-83
2022/02/21 08:12:44;;;;;;;;;;;;;;;8.93;91.74;96395.74;1750350;81;24827;-83
2022/02/21 08:15:10;;;;;;;;;;;;;;;8.95;91.76;96388.09;1748643;81;22714;-83
2022/02/21 08:17:43;;;;;;;;;;;;;;;8.89;91.74;96389.98;1745326;81;26575;-87
2022/02/21 08:20:10;;;;;;;;;;;;;;;8.79;91.64;96378.30;1754360;81;24495;-83
2022/02/21 08:22:37;;;;;;;;;;;;;;;8.76;91.64;96381.70;1747119;81;20460;-83
2022/02/21 08:25:03;;;;;;;;;;;;;;;8.65;91.49;96391.02;1754483;81;24826;-87
2022/02/21 08:27:30;;;;;;;;;;;;;;;8.54;91.35;96384.22;1751615;81;22327;-87
2022/02/21 08:29:56;;;;;;;;;;;;;;;8.46;91.25;96380.19;1746563;81;26708;-83
2022/02/21 08:32:22;;;;;;;;;;;;;;;8.42;91.21;96370.20;1747798;81;20273;-83
2022/02/21 08:34:48;;;;;;;;;;;;;;;8.35;91.22;96370.77;1748273;81;20238;-87
2022/02/21 08:37:17;;;;;;;;;;;;;;;8.32;91.19;96378.08;1749048;81;24795;-87
2022/02/21 08:39:43;;;;;;;;;;;;;;;8.26;91.16;96356.46;1749446;81;21921;-83
2022/02/21 08:42:11;;;;;;;;;;;;;;;8.19;91.10;96355.38;1746330;81;25967;-83
2022/02/21 08:44:37;;;;;;;;;;;;;;;8.18;91.12;96353.77;1748769;81;24574;-83
2022/02/21 08:47:03;;;;;;;;;;;;;;;8.18;91.16;96344.65;1755897;81;20294;-83
2022/02/21 08:49:29;;;;;;;;;;;;;;;8.21;91.27;96348.25;1750402;81;24864;-83
2022/02/21 08:51:55;;;;;;;;;;;;;;;8.23;91.37;96339.34;1748675;81;20899;-82
2022/02/21 08:54:22;;;;;;;;;;;;;;;8.25;91.45;96344.39;1745089;81;26110;-83
2022/02/21 08:56:48;;;;;;;;;;;;;;;8.30;91.56;96340.91;1753888;81;24428;-83
2022/02/21 08:59:16;;;;;;;;;;;;;;;8.31;91.63;96343.37;1724992;83;20428;-84
2022/02/21 09:01:44;;;;;;;;;;;;;;;8.31;91.72;96336.86;1730663;83;25554;-84
2022/02/21 09:04:15;;;;;;;;;;;;;;;8.33;91.74;96339.33;1730122;82;22983;-87
2022/02/21 09:06:41;;;;;;;;;;;;;;;8.31;91.68;96326.43;1742921;82;27933;-87
2022/02/21 09:09:07;;;;;;;;;;;;;;;8.33;91.69;96323.69;1741136;82;24463;-87
2022/02/21 09:11:33;;;;;;;;;;;;;;;8.32;91.64;96318.13;1725490;82;20349;-87
2022/02/21 09:14:02;;;;;;;;;;;;;;;8.28;91.52;96318.06;1693127;83;24896;-87
2022/02/21 09:16:27;;;;;;;;;;;;;;;8.26;91.47;96333.02;1743440;81;22022;-87
2022/02/21 09:18:53;;;;;;;;;;;;;;;8.25;91.38;96336.09;1729917;83;26204;-87
2022/02/21 09:21:19;;;;;;;;;;;;;;;8.24;91.41;96315.38;1723225;82;24399;-87
2022/02/21 09:23:46;;;;;;;;;;;;;;;8.23;91.37;96334.61;1726314;82;20244;-87
2022/02/21 09:26:12;;;;;;;;;;;;;;;8.16;91.32;96326.55;1721953;82;24774;-87
2022/02/21 09:28:39;;;;;;;;;;;;;;;8.15;91.30;96322.30;1730577;82;21984;-87
2022/02/21 09:31:08;;;;;;;;;;;;;;;8.13;91.26;96336.45;1722938;82;26029;-87
2022/02/21 09:33:36;;;;;;;;;;;;;;;8.07;91.21;96325.29;1727989;82;24424;-87
2022/02/21 09:36:02;;;;;;;;;;;;;;;8.03;91.17;96337.77;1726826;82;20245;-87
2022/02/21 09:38:28;;;;;;;;;;;;;;;7.98;91.15;96333.46;1720352;83;24754;-83
2022/02/21 09:40:56;;;;;;;;;;;;;;;7.92;91.12;96332.25;1730193;81;21996;-83
2022/02/21 09:43:26;;;;;;;;;;;;;;;7.88;91.08;96337.41;1728189;81;25684;-82
2022/02/21 09:45:53;;;;;;;;;;;;;;;7.86;91.17;96334.11;1719359;82;24450;-83
2022/02/21 09:48:19;;;;;;;;;;;;;;;7.81;91.14;96338.92;1716886;83;20329;-84
2022/02/21 09:50:45;;;;;;;;;;;;;;;7.78;91.18;96349.64;1739245;81;24727;-84
2022/02/21 09:53:13;;;;;;;;;;;;;;;7.78;91.24;96363.95;1719475;81;20591;-84
2022/02/21 09:55:41;;;;;;;;;;;;;;;7.73;91.29;96375.75;1723644;82;25959;-86
2022/02/21 09:58:07;;;;;;;;;;;;;;;7.70;91.37;96383.34;1724447;82;24468;-86
2022/02/21 10:00:33;;;;;;;;;;;;;;;7.70;91.46;96376.84;1723280;82;20337;-86
2022/02/21 10:03:02;;;;;;;;;;;;;;;7.72;91.60;96390.55;1718151;82;25721;-86
2022/02/21 10:05:28;;;;;;;;;;;;;;;7.73;91.77;96400.01;1693727;82;23472;-86
2022/02/21 10:07:57;;;;;;;;;;;;;;;7.76;91.99;96401.02;1723402;82;26476;-87
2022/02/21 10:10:25;;;;;;;;;;;;;;;7.77;92.22;96410.95;1723523;82;24705;-86
2022/02/21 10:12:53;;;;;;;;;;;;;;;7.74;92.46;96426.39;1726606;82;20528;-82
2022/02/21 10:15:29;;;;;;;;;;;;;;;7.80;92.98;96413.30;1721077;81;25442;-82
2022/02/21 10:18:09;;;;;;;;;;;;;;;7.90;93.46;96422.73;1727738;81;23024;-82
2022/02/21 10:20:37;;;;;;;;;;;;;;;7.97;93.77;96418.59;1730967;81;26041;-82
2022/02/21 10:23:06;;;;;;;;;;;;;;;8.06;93.94;96409.61;1725189;82;25381;-82
2022/02/21 10:25:32;;;;;;;;;;;;;;;8.12;93.88;96444.21;1723052;82;20197;-86
2022/02/21 10:27:59;;;;;;;;;;;;;;;8.14;93.56;96444.88;1712264;82;24695;-86
2022/02/21 10:30:26;;;;;;;;;;;;;;;8.11;92.99;96445.17;1715704;82;22188;-86
2022/02/21 10:32:52;;;;;;;;;;;;;;;8.09;92.24;96453.11;1713962;82;26212;-82
2022/02/21 10:35:23;;;;;;;;;;;;;;;7.98;91.36;96461.91;1716191;82;24520;-82
2022/02/21 10:37:53;;;;;;;;;;;;;;;8.01;90.62;96476.45;1716270;82;20346;-86
2022/02/21 10:40:25;;;;;;;;;;;;;;;7.95;89.92;96476.53;1719486;82;24735;-86
2022/02/21 10:43:06;;;;;;;;;;;;;;;7.91;89.39;96482.13;1712523;83;22230;-86
2022/02/21 10:45:34;;;;;;;;;;;;;;;7.87;88.86;96485.50;1712090;82;26022;-86
2022/02/21 10:48:10;;;;;;;;;;;;;;;7.87;88.50;96496.39;1711806;82;24522;-82
2022/02/21 10:50:38;;;;;;;;;;;;;;;7.87;88.21;96518.53;1716141;83;20302;-86
2022/02/21 10:53:10;;;;;;;;;;;;;;;7.88;88.04;96524.91;1718374;81;25022;-86
2022/02/21 10:55:37;;;;;;;;;;;;;;;7.92;87.96;96521.06;1718774;81;22768;-84
2022/02/21 10:58:23;;;;;;;;;;;;;;;7.92;88.01;96499.41;1720248;81;26051;-86
2022/02/21 11:00:49;;;;;;;;;;;;;;;7.92;88.03;96478.09;1719722;83;24492;-84
2022/02/21 11:03:17;;;;;;;;;;;;;;;7.91;88.02;96476.44;1723079;83;20205;-84
2022/02/21 11:05:45;;;;;;;;;;;;;;;7.91;87.98;96473.83;1720409;83;24726;-84
2022/02/21 11:08:11;;;;;;;;;;;;;;;7.89;87.83;96470.56;1719509;81;22046;-86
2022/02/21 11:10:46;;;;;;;;;;;;;;;7.91;87.64;96482.95;1721077;83;26147;-86
2022/02/21 11:13:15;;;;;;;;;;;;;;;7.89;87.38;96503.59;1719745;82;24462;-82
2022/02/21 11:15:41;;;;;;;;;;;;;;;7.82;86.92;96505.92;1721164;83;20328;-82
2022/02/21 11:18:12;;;;;;;;;;;;;;;7.79;86.46;96508.81;1716584;83;24770;-82
2022/02/21 11:20:38;;;;;;;;;;;;;;;7.75;85.88;96528.25;1718793;83;22068;-82
2022/02/21 11:23:10;;;;;;;;;;;;;;;7.72;85.20;96545.94;1718343;83;25994;-86
2022/02/21 11:25:58;;;;;;;;;;;;;;;7.66;84.49;96539.48;1715918;83;24699;-86
2022/02/21 11:28:43;;;;;;;;;;;;;;;7.61;83.75;96546.88;1716716;83;20314;-86
2022/02/21 11:31:09;;;;;;;;;;;;;;;7.56;82.95;96547.77;1717713;83;24986;-82
2022/02/21 11:33:53;;;;;;;;;;;;;;;7.50;82.32;96568.65;1719175;82;22029;-85
2022/02/21 11:36:20;;;;;;;;;;;;;;;7.51;81.92;96577.28;1717922;82;26039;-86
2022/02/21 11:38:47;;;;;;;;;;;;;;;7.50;81.52;96570.42;1719078;83;24443;-82
2022/02/21 11:41:13;;;;;;;;;;;;;;;7.45;81.17;96575.20;1713101;81;20326;-83
2022/02/21 11:43:41;;;;;;;;;;;;;;;7.42;80.82;96574.98;1721847;83;24711;-86
2022/02/21 11:46:09;;;;;;;;;;;;;;;7.43;80.58;96582.31;1692934;84;21960;-83
2022/02/21 11:48:55;;;;;;;;;;;;;;;7.41;80.25;96601.98;1658708;84;25915;-86
2022/02/21 11:51:32;;;;;;;;;;;;;;;7.44;80.06;96608.69;1719551;83;24554;-87
2022/02/21 11:54:15;;;;;;;;;;;;;;;7.45;79.83;96608.56;1685975;83;20535;-86
2022/02/21 11:56:51;;;;;;;;;;;;;;;7.45;79.52;96593.43;1695364;83;21691;-86
2022/02/21 11:59:20;;;;;;;;;;;;;;;7.48;79.28;96599.66;1692280;83;22868;-87
2022/02/21 12:01:51;;;;;;;;;;;;;;;7.56;79.22;96592.84;1663441;84;27311;-87
2022/02/21 12:04:21;;;;;;;;;;;;;;;7.59;79.07;96600.84;1685689;83;24520;-87
2022/02/21 12:06:49;;;;;;;;;;;;;;;7.58;78.87;96619.55;1693586;83;20221;-86
2022/02/21 12:09:15;;;;;;;;;;;;;;;7.61;78.79;96622.38;1698937;83;25033;-86
2022/02/21 12:11:41;;;;;;;;;;;;;;;7.61;78.71;96636.69;1690861;83;22603;-85
2022/02/21 12:14:09;;;;;;;;;;;;;;;7.54;78.58;96641.59;1692529;83;26808;-86
2022/02/21 12:16:54;;;;;;;;;;;;;;;7.58;78.43;96651.77;1686449;83;24056;-86
2022/02/21 12:19:30;;;;;;;;;;;;;;;7.58;78.28;96659.09;1698954;84;20225;-85
2022/02/21 12:22:07;;;;;;;;;;;;;;;7.52;77.96;96659.62;1720879;83;24771;-86
2022/02/21 12:24:52;;;;;;;;;;;;;;;7.50;77.68;96655.02;1685675;84;22906;-86
2022/02/21 12:27:18;;;;;;;;;;;;;;;7.50;77.43;96666.72;1709437;83;26235;-86
2022/02/21 12:29:48;;;;;;;;;;;;;;;7.47;77.30;96664.40;1717251;83;25324;-87
2022/02/21 12:32:16;;;;;;;;;;;;;;;7.41;77.16;96663.14;1712237;83;20239;-86
2022/02/21 12:34:43;;;;;;;;;;;;;;;7.37;77.18;96671.31;1715535;83;24809;-87
2022/02/21 12:37:10;;;;;;;;;;;;;;;7.31;77.18;96674.47;1719455;83;21989;-84
2022/02/21 12:39:38;;;;;;;;;;;;;;;7.29;77.28;96672.46;1714166;83;26013;-83
2022/02/21 12:42:05;;;;;;;;;;;;;;;7.28;77.40;96682.52;1721047;82;24420;-84
2022/02/21 12:44:31;;;;;;;;;;;;;;;7.26;77.59;96670.92;1713990;83;20202;-84
2022/02/21 12:47:00;;;;;;;;;;;;;;;7.26;77.73;96687.02;1689003;83;25003;-83
2022/02/21 12:49:29;;;;;;;;;;;;;;;7.26;77.85;96695.64;1715353;83;22108;-84
2022/02/21 12:52:06;;;;;;;;;;;;;;;7.24;77.92;96690.23;1689407;84;26013;-87
2022/02/21 12:54:35;;;;;;;;;;;;;;;7.24;77.99;96674.62;1713228;83;25272;-87
2022/02/21 12:57:02;;;;;;;;;;;;;;;7.25;78.00;96697.92;1722745;83;20236;-86
2022/02/21 12:59:30;;;;;;;;;;;;;;;7.23;77.95;96688.11;1714553;83;24769;-86
2022/02/21 13:01:56;;;;;;;;;;;;;;;7.24;77.89;96696.74;1712415;81;21959;-86